createdAt,value
2018-11-04T00:01:43.733Z,4.95
2018-11-04T00:04:13.296Z,4.95
2018-11-04T00:06:42.892Z,4.93
2018-11-04T00:09:12.683Z,4.93
2018-11-04T00:11:42.105Z,4.91
2018-11-04T00:14:11.542Z,4.87
2018-11-04T00:16:41.198Z,4.82
2018-11-04T00:19:10.498Z,4.83
2018-11-04T00:21:39.838Z,4.85
2018-11-04T00:24:09.350Z,4.80
2018-11-04T00:26:38.566Z,4.75
2018-11-04T00:29:08.216Z,4.74
2018-11-04T00:31:37.458Z,4.75
2018-11-04T00:34:06.858Z,4.74
2018-11-04T00:36:36.268Z,4.70
2018-11-04T00:39:07.539Z,4.68
2018-11-04T00:41:37.421Z,4.70
2018-11-04T00:44:06.809Z,4.69
2018-11-04T00:46:36.475Z,4.67
2018-11-04T00:49:06.581Z,4.68
2018-11-04T00:51:36.052Z,4.68
2018-11-04T00:54:05.500Z,4.64
2018-11-04T00:56:35.475Z,4.66
2018-11-04T00:59:04.957Z,4.65
2018-11-04T01:01:34.369Z,4.63
2018-11-04T01:04:03.856Z,4.63
2018-11-04T01:06:33.506Z,4.63
2018-11-04T01:09:03.429Z,4.60
2018-11-04T01:11:32.787Z,4.58
2018-11-04T01:14:02.745Z,4.61
2018-11-04T01:16:32.408Z,4.62
2018-11-04T01:19:02.080Z,4.59
2018-11-04T01:21:31.628Z,4.61
2018-11-04T01:24:02.403Z,4.57
2018-11-04T01:26:31.837Z,4.54
2018-11-04T01:29:01.632Z,4.55
2018-11-04T01:31:31.023Z,4.55
2018-11-04T01:34:00.354Z,4.53
2018-11-04T01:36:29.698Z,4.56
2018-11-04T01:38:59.017Z,4.53
2018-11-04T01:41:28.632Z,4.51
2018-11-04T01:43:58.007Z,4.47
2018-11-04T01:46:27.445Z,4.46
2018-11-04T01:48:57.750Z,4.46
2018-11-04T01:51:27.698Z,4.45
2018-11-04T01:53:57.373Z,4.45
2018-11-04T01:56:27.033Z,4.45
2018-11-04T01:58:56.541Z,4.43
2018-11-04T02:01:26.182Z,4.45
2018-11-04T02:03:56.024Z,4.43
2018-11-04T02:06:26.695Z,4.42
2018-11-04T02:08:56.261Z,4.45
2018-11-04T02:11:25.914Z,4.44
2018-11-04T02:13:55.682Z,4.43
2018-11-04T02:16:25.380Z,4.42
2018-11-04T02:18:55.089Z,4.41
2018-11-04T02:21:24.573Z,4.42
2018-11-04T02:23:54.094Z,4.42
2018-11-04T02:26:23.517Z,4.42
2018-11-04T02:28:53.412Z,4.42
2018-11-04T02:31:23.773Z,4.43
2018-11-04T02:33:55.007Z,4.42
2018-11-04T02:36:25.009Z,4.37
2018-11-04T02:38:54.398Z,4.38
2018-11-04T02:41:23.934Z,4.36
2018-11-04T02:43:53.775Z,4.35
2018-11-04T02:46:23.852Z,4.36
2018-11-04T02:48:53.226Z,4.40
2018-11-04T02:51:22.804Z,4.41
2018-11-04T02:53:52.173Z,4.40
2018-11-04T02:56:35.674Z,4.40
2018-11-04T02:59:26.084Z,4.36
2018-11-04T03:01:59.386Z,4.33
2018-11-04T03:04:28.697Z,4.31
2018-11-04T03:06:58.241Z,4.32
2018-11-04T03:09:27.645Z,4.32
2018-11-04T03:11:57.169Z,4.31
2018-11-04T03:14:27.990Z,4.27
2018-11-04T03:16:57.335Z,4.26
2018-11-04T03:19:26.784Z,4.25
2018-11-04T03:21:56.372Z,4.26
2018-11-04T03:24:26.049Z,4.28
2018-11-04T03:26:55.568Z,4.30
2018-11-04T03:29:26.115Z,4.33
2018-11-04T03:32:02.063Z,4.33
2018-11-04T03:34:31.598Z,4.31
2018-11-04T03:37:01.723Z,4.29
2018-11-04T03:39:31.414Z,4.29
2018-11-04T03:42:00.979Z,4.28
2018-11-04T03:44:30.371Z,4.27
2018-11-04T03:46:59.775Z,4.27
2018-11-04T03:49:29.200Z,4.26
2018-11-04T03:51:58.799Z,4.24
2018-11-04T03:54:28.249Z,4.26
2018-11-04T03:56:58.457Z,4.23
2018-11-04T03:59:28.363Z,4.22
2018-11-04T04:01:57.816Z,4.18
2018-11-04T04:04:27.484Z,4.17
2018-11-04T04:06:57.090Z,4.16
2018-11-04T04:09:27.133Z,4.18
2018-11-04T04:11:56.633Z,4.16
2018-11-04T04:14:26.313Z,4.17
2018-11-04T04:16:56.251Z,4.17
2018-11-04T04:19:26.488Z,4.17
2018-11-04T04:21:55.789Z,4.16
2018-11-04T04:24:27.063Z,4.16
2018-11-04T04:26:59.351Z,4.15
2018-11-04T04:29:30.402Z,4.16
2018-11-04T04:31:59.730Z,4.13
2018-11-04T04:34:29.925Z,4.15
2018-11-04T04:36:59.549Z,4.15
2018-11-04T04:39:29.851Z,4.16
2018-11-04T04:42:00.425Z,4.18
2018-11-04T04:44:30.397Z,4.22
2018-11-04T04:46:59.911Z,4.22
2018-11-04T04:49:29.414Z,4.26
2018-11-04T04:51:58.866Z,4.27
2018-11-04T04:54:28.630Z,4.29
2018-11-04T04:56:58.220Z,4.33
2018-11-04T04:59:27.740Z,4.39
2018-11-04T05:01:57.154Z,4.46
2018-11-04T05:04:26.662Z,4.50
2018-11-04T05:06:56.996Z,4.55
2018-11-04T05:09:26.489Z,4.61
2018-11-04T05:11:55.865Z,4.68
2018-11-04T05:14:25.360Z,4.71
2018-11-04T05:16:55.629Z,4.78
2018-11-04T05:19:25.269Z,4.83
2018-11-04T05:21:55.803Z,4.89
2018-11-04T05:24:25.528Z,4.98
2018-11-04T05:26:54.908Z,5.05
2018-11-04T05:29:24.268Z,5.09
2018-11-04T05:31:53.613Z,5.15
2018-11-04T05:34:26.156Z,5.22
2018-11-04T05:36:55.581Z,5.24
2018-11-04T05:39:25.069Z,5.27
2018-11-04T05:41:54.670Z,5.30
2018-11-04T05:44:24.844Z,5.34
2018-11-04T05:46:57.360Z,5.35
2018-11-04T05:49:27.692Z,5.36
2018-11-04T05:51:58.731Z,5.41
2018-11-04T05:54:29.009Z,5.43
2018-11-04T05:56:58.632Z,5.46
2018-11-04T05:59:28.122Z,5.46
2018-11-04T06:01:57.588Z,5.51
2018-11-04T06:04:28.051Z,5.52
2018-11-04T06:06:57.536Z,5.54
2018-11-04T06:09:27.062Z,5.57
2018-11-04T06:11:57.628Z,5.57
2018-11-04T06:14:29.114Z,5.63
2018-11-04T06:16:58.386Z,5.67
2018-11-04T06:19:28.234Z,5.72
2018-11-04T06:21:58.349Z,5.73
2018-11-04T06:24:28.731Z,5.78
2018-11-04T06:26:58.104Z,5.81
2018-11-04T06:29:27.963Z,5.84
2018-11-04T06:31:57.353Z,5.88
2018-11-04T06:34:30.840Z,5.91
2018-11-04T06:37:00.330Z,5.93
2018-11-04T06:39:30.634Z,5.95
2018-11-04T06:41:59.908Z,6.00
2018-11-04T06:44:32.438Z,6.04
2018-11-04T06:47:01.940Z,6.07
2018-11-04T06:49:33.640Z,6.09
2018-11-04T06:52:03.206Z,6.12
2018-11-04T06:54:32.776Z,6.18
2018-11-04T06:57:02.703Z,6.21
2018-11-04T06:59:32.188Z,6.26
2018-11-04T07:02:01.612Z,6.28
2018-11-04T07:04:32.605Z,6.28
2018-11-04T07:07:02.212Z,6.29
2018-11-04T07:09:32.123Z,6.30
2018-11-04T07:12:02.464Z,6.34
2018-11-04T07:14:32.385Z,6.36
2018-11-04T07:17:01.849Z,6.40
2018-11-04T07:19:33.149Z,6.44
2018-11-04T07:22:02.671Z,6.50
2018-11-04T07:24:34.010Z,6.54
2018-11-04T07:27:03.603Z,6.58
2018-11-04T07:29:34.025Z,6.62
2018-11-04T07:32:04.508Z,6.65
2018-11-04T07:34:35.107Z,6.70
2018-11-04T07:37:04.616Z,6.75
2018-11-04T07:39:34.315Z,6.80
2018-11-04T07:42:05.705Z,6.82
2018-11-04T07:44:35.242Z,6.86
2018-11-04T07:47:04.707Z,6.91
2018-11-04T07:49:34.694Z,6.97
2018-11-04T07:52:04.304Z,7.04
2018-11-04T07:54:35.132Z,7.11
2018-11-04T07:57:05.499Z,7.18
2018-11-04T07:59:35.270Z,7.25
2018-11-04T08:02:04.871Z,7.31
2018-11-04T08:04:35.679Z,7.35
2018-11-04T08:07:06.244Z,7.42
2018-11-04T08:09:37.116Z,7.48
2018-11-04T08:12:06.686Z,7.56
2018-11-04T08:14:36.899Z,7.60
2018-11-04T08:17:06.755Z,7.68
2018-11-04T08:19:37.454Z,7.74
2018-11-04T08:22:06.838Z,7.81
2018-11-04T08:24:36.654Z,7.88
2018-11-04T08:27:06.461Z,7.96
2018-11-04T08:29:36.908Z,8.03
2018-11-04T08:32:06.768Z,8.11
2018-11-04T08:34:38.699Z,8.17
2018-11-04T08:37:08.188Z,8.18
2018-11-04T08:39:38.439Z,8.20
2018-11-04T08:42:09.335Z,8.20
2018-11-04T08:44:42.002Z,8.22
2018-11-04T08:47:12.046Z,8.25
2018-11-04T08:49:42.687Z,8.24
2018-11-04T08:52:12.487Z,8.25
2018-11-04T08:54:42.678Z,8.29
2018-11-04T08:57:12.687Z,8.33
2018-11-04T08:59:43.779Z,8.39
2018-11-04T09:02:13.386Z,8.46
2018-11-04T09:04:43.162Z,8.54
2018-11-04T09:07:12.910Z,8.62
2018-11-04T09:09:42.708Z,8.63
2018-11-04T09:12:12.485Z,8.69
2018-11-04T09:14:41.986Z,8.75
2018-11-04T09:17:11.795Z,8.86
2018-11-04T09:19:42.636Z,8.98
2018-11-04T09:22:13.415Z,9.05
2018-11-04T09:24:44.199Z,9.14
2018-11-04T09:27:18.607Z,9.24
2018-11-04T09:29:49.578Z,9.36
2018-11-04T09:32:19.641Z,9.46
2018-11-04T09:34:50.516Z,9.55
2018-11-04T09:37:21.441Z,9.62
2018-11-04T09:39:53.258Z,9.74
2018-11-04T09:42:24.337Z,9.84
2018-11-04T09:44:54.913Z,9.92
2018-11-04T09:47:26.949Z,9.99
2018-11-04T09:49:57.903Z,10.11
2018-11-04T09:52:29.661Z,10.19
2018-11-04T09:54:59.931Z,10.28
2018-11-04T09:57:32.015Z,10.32
2018-11-04T10:00:03.673Z,10.34
2018-11-04T10:02:34.753Z,10.42
2018-11-04T10:05:05.692Z,10.45
2018-11-04T10:07:35.720Z,10.53
2018-11-04T10:10:08.959Z,10.66
2018-11-04T10:12:41.426Z,10.74
2018-11-04T10:15:12.067Z,10.80
2018-11-04T10:17:43.319Z,10.82
2018-11-04T10:20:24.634Z,10.87
2018-11-04T10:22:54.967Z,10.94
2018-11-04T10:25:24.492Z,11.01
2018-11-04T10:27:54.824Z,11.13
2018-11-04T10:30:24.386Z,11.23
2018-11-04T10:32:53.864Z,11.38
2018-11-04T10:35:25.341Z,11.46
2018-11-04T10:37:55.068Z,11.47
2018-11-04T10:40:24.965Z,11.54
2018-11-04T10:42:55.198Z,11.57
2018-11-04T10:45:25.973Z,11.58
2018-11-04T10:47:55.670Z,11.63
2018-11-04T10:50:27.809Z,11.73
2018-11-04T10:52:57.478Z,11.78
2018-11-04T10:55:28.034Z,11.78
2018-11-04T10:57:58.214Z,11.81
2018-11-04T11:00:32.948Z,11.80
2018-11-04T11:03:03.759Z,11.87
2018-11-04T11:05:33.263Z,11.93
2018-11-04T11:08:08.398Z,12.00
2018-11-04T11:10:38.837Z,12.05
2018-11-04T11:13:08.945Z,12.14
2018-11-04T11:15:38.615Z,12.26
2018-11-04T11:18:08.272Z,12.27
2018-11-04T11:20:38.434Z,12.26
2018-11-04T11:23:08.722Z,12.26
2018-11-04T11:25:38.734Z,12.27
2018-11-04T11:28:08.424Z,12.27
2018-11-04T11:30:38.544Z,12.25
2018-11-04T11:33:08.452Z,12.28
2018-11-04T11:35:38.293Z,12.36
2018-11-04T11:38:08.007Z,12.40
2018-11-04T11:40:37.677Z,12.44
2018-11-04T11:43:07.833Z,12.49
2018-11-04T11:45:37.497Z,12.58
2018-11-04T11:48:07.421Z,12.64
2018-11-04T11:50:37.037Z,12.70
2018-11-04T11:53:07.142Z,12.77
2018-11-04T11:55:37.504Z,12.90
2018-11-04T11:58:07.424Z,13.06
2018-11-04T12:00:37.911Z,13.06
2018-11-04T12:03:07.573Z,13.17
2018-11-04T12:05:37.994Z,13.11
2018-11-04T12:08:07.652Z,13.11
2018-11-04T12:10:37.206Z,13.10
2018-11-04T12:13:06.898Z,13.09
2018-11-04T12:15:38.402Z,13.20
2018-11-04T12:18:08.031Z,13.28
2018-11-04T12:20:37.694Z,13.34
2018-11-04T12:23:08.575Z,13.35
2018-11-04T12:25:37.996Z,13.26
2018-11-04T12:28:07.688Z,13.17
2018-11-04T12:30:38.590Z,13.20
2018-11-04T12:33:08.543Z,13.18
2018-11-04T12:35:38.514Z,13.20
2018-11-04T12:38:08.386Z,13.22
2018-11-04T12:40:37.891Z,13.27
2018-11-04T12:43:07.433Z,13.29
2018-11-04T12:45:36.748Z,13.30
2018-11-04T12:48:06.484Z,13.27
2018-11-04T12:50:37.994Z,13.23
2018-11-04T12:53:08.012Z,13.25
2018-11-04T12:55:37.482Z,13.28
2018-11-04T12:58:07.140Z,13.33
2018-11-04T13:00:37.077Z,13.33
2018-11-04T13:03:06.794Z,13.22
2018-11-04T13:05:36.301Z,13.20
2018-11-04T13:08:06.136Z,13.14
2018-11-04T13:10:35.879Z,13.18
2018-11-04T13:13:05.910Z,13.25
2018-11-04T13:15:35.379Z,13.28
2018-11-04T13:18:05.010Z,13.35
2018-11-04T13:20:34.757Z,13.39
2018-11-04T13:23:05.274Z,13.40
2018-11-04T13:25:34.948Z,13.40
2018-11-04T13:28:04.703Z,13.49
2018-11-04T13:30:34.200Z,13.55
2018-11-04T13:33:04.424Z,13.53
2018-11-04T13:35:34.131Z,13.54
2018-11-04T13:38:03.913Z,13.62
2018-11-04T13:40:37.404Z,13.62
2018-11-04T13:43:07.280Z,13.57
2018-11-04T13:45:36.696Z,13.55
2018-11-04T13:48:07.948Z,13.46
2018-11-04T13:50:39.093Z,13.44
2018-11-04T13:53:08.594Z,13.42
2018-11-04T13:55:39.059Z,13.38
2018-11-04T13:58:09.487Z,13.34
2018-11-04T14:00:40.272Z,13.32
2018-11-04T14:03:09.852Z,13.32
2018-11-04T14:05:39.357Z,13.28
2018-11-04T14:08:09.001Z,13.25
2018-11-04T14:10:39.287Z,13.27
2018-11-04T14:13:09.142Z,13.22
2018-11-04T14:15:38.786Z,13.19
2018-11-04T14:18:09.086Z,13.15
2018-11-04T14:20:38.820Z,13.17
2018-11-04T14:23:08.494Z,13.11
2018-11-04T14:25:38.460Z,13.08
2018-11-04T14:28:08.140Z,13.09
2018-11-04T14:30:37.713Z,13.07
2018-11-04T14:33:07.724Z,13.10
2018-11-04T14:35:37.429Z,13.10
2018-11-04T14:38:07.177Z,13.08
2018-11-04T14:40:37.484Z,13.10
2018-11-04T14:43:08.612Z,13.08
2018-11-04T14:45:38.567Z,13.17
2018-11-04T14:48:08.401Z,13.14
2018-11-04T14:50:38.226Z,13.15
2018-11-04T14:53:07.798Z,13.14
2018-11-04T14:55:38.014Z,13.14
2018-11-04T14:58:07.592Z,13.12
2018-11-04T15:00:38.197Z,13.10
2018-11-04T15:03:08.724Z,13.10
2018-11-04T15:05:38.813Z,13.10
2018-11-04T15:08:08.402Z,13.09
2018-11-04T15:10:38.080Z,13.12
2018-11-04T15:13:08.273Z,13.06
2018-11-04T15:15:38.565Z,13.02
2018-11-04T15:18:08.574Z,12.97
2018-11-04T15:20:40.157Z,12.98
2018-11-04T15:23:09.829Z,12.97
2018-11-04T15:25:39.407Z,12.92
2018-11-04T15:28:10.145Z,12.90
2018-11-04T15:30:39.593Z,12.94
2018-11-04T15:33:09.332Z,12.93
2018-11-04T15:35:38.709Z,12.92
2018-11-04T15:38:08.287Z,12.87
2018-11-04T15:40:37.958Z,12.86
2018-11-04T15:43:09.623Z,12.82
2018-11-04T15:45:39.262Z,12.81
2018-11-04T15:48:09.118Z,12.84
2018-11-04T15:50:39.457Z,12.82
2018-11-04T15:53:09.374Z,12.79
2018-11-04T15:55:38.932Z,12.78
2018-11-04T15:58:09.554Z,12.74
2018-11-04T16:00:39.476Z,12.74
2018-11-04T16:03:09.278Z,12.73
2018-11-04T16:05:38.975Z,12.72
2018-11-04T16:08:08.704Z,12.70
2018-11-04T16:10:38.524Z,12.67
2018-11-04T16:13:09.143Z,12.63
2018-11-04T16:15:38.799Z,12.60
2018-11-04T16:18:08.289Z,12.62
2018-11-04T16:20:38.390Z,12.59
2018-11-04T16:23:07.860Z,12.54
2018-11-04T16:25:38.512Z,12.50
2018-11-04T16:28:07.770Z,12.45
2018-11-04T16:30:38.302Z,12.38
2018-11-04T16:33:07.867Z,12.35
2018-11-04T16:35:37.204Z,12.37
2018-11-04T16:38:07.667Z,12.30
2018-11-04T16:40:37.295Z,12.29
2018-11-04T16:43:06.801Z,12.26
2018-11-04T16:45:36.549Z,12.21
2018-11-04T16:48:06.303Z,12.12
2018-11-04T16:50:36.006Z,12.04
2018-11-04T16:53:05.771Z,11.96
2018-11-04T16:55:35.456Z,11.89
2018-11-04T16:58:05.462Z,11.84
2018-11-04T17:00:34.984Z,11.77
2018-11-04T17:03:04.282Z,11.73
2018-11-04T17:05:34.809Z,11.72
2018-11-04T17:08:04.339Z,11.65
2018-11-04T17:10:34.691Z,11.62
2018-11-04T17:13:04.155Z,11.58
2018-11-04T17:15:34.439Z,11.55
2018-11-04T17:18:04.049Z,11.52
2018-11-04T17:20:34.521Z,11.47
2018-11-04T17:23:04.373Z,11.53
2018-11-04T17:25:34.404Z,11.47
2018-11-04T17:28:05.113Z,11.39
2018-11-04T17:30:35.807Z,11.46
2018-11-04T17:33:05.312Z,11.31
2018-11-04T17:35:36.001Z,11.25
2018-11-04T17:38:06.746Z,11.24
2018-11-04T17:40:36.805Z,11.23
2018-11-04T17:43:07.030Z,11.21
2018-11-04T17:45:37.513Z,11.19
2018-11-04T17:48:09.308Z,11.27
2018-11-04T17:50:40.105Z,11.25
2018-11-04T17:53:10.289Z,11.19
2018-11-04T17:55:39.791Z,11.25
2018-11-04T17:58:09.151Z,11.18
2018-11-04T18:00:39.875Z,11.11
2018-11-04T18:03:09.472Z,11.04
2018-11-04T18:05:39.393Z,11.03
2018-11-04T18:08:09.892Z,11.00
2018-11-04T18:10:40.121Z,10.98
2018-11-04T18:13:09.539Z,10.95
2018-11-04T18:15:39.127Z,10.90
2018-11-04T18:18:08.601Z,10.85
2018-11-04T18:20:38.093Z,10.81
2018-11-04T18:23:08.232Z,10.83
2018-11-04T18:25:38.373Z,10.83
2018-11-04T18:28:07.950Z,10.82
2018-11-04T18:30:37.538Z,10.78
2018-11-04T18:33:08.091Z,10.73
2018-11-04T18:35:38.577Z,10.75
2018-11-04T18:38:09.213Z,10.76
2018-11-04T18:40:38.911Z,10.75
2018-11-04T18:43:09.143Z,10.74
2018-11-04T18:45:38.778Z,10.74
2018-11-04T18:48:08.482Z,10.74
2018-11-04T18:50:38.077Z,10.74
2018-11-04T18:53:07.644Z,10.78
2018-11-04T18:55:37.261Z,10.83
2018-11-04T18:58:06.908Z,10.83
2018-11-04T19:00:36.728Z,10.88
2018-11-04T19:03:06.380Z,10.89
2018-11-04T19:05:36.146Z,10.92
2018-11-04T19:08:05.797Z,10.93
2018-11-04T19:10:35.262Z,10.93
2018-11-04T19:13:04.570Z,10.93
2018-11-04T19:15:36.569Z,10.93
2018-11-04T19:18:06.304Z,10.89
2018-11-04T19:20:35.881Z,10.87
2018-11-04T19:23:05.599Z,10.86
2018-11-04T19:25:35.147Z,10.85
2018-11-04T19:28:05.040Z,10.81
2018-11-04T19:30:34.776Z,10.79
2018-11-04T19:33:04.462Z,10.74
2018-11-04T19:35:34.295Z,10.69
2018-11-04T19:38:04.104Z,10.65
2018-11-04T19:40:34.131Z,10.61
2018-11-04T19:43:03.870Z,10.57
2018-11-04T19:45:34.130Z,10.54
2018-11-04T19:48:03.551Z,10.50
2018-11-04T19:50:33.172Z,10.46
2018-11-04T19:53:03.398Z,10.43
2018-11-04T19:55:32.773Z,10.43
2018-11-04T19:58:02.478Z,10.43
2018-11-04T20:00:34.745Z,10.39
2018-11-04T20:03:04.121Z,10.37
2018-11-04T20:05:34.369Z,10.36
2018-11-04T20:08:03.905Z,10.34
2018-11-04T20:10:34.216Z,10.34
2018-11-04T20:13:08.947Z,10.32
2018-11-04T20:15:38.798Z,10.31
2018-11-04T20:18:13.588Z,10.34
2018-11-04T20:20:43.113Z,10.32
2018-11-04T20:23:12.805Z,10.32
2018-11-04T20:25:47.616Z,10.30
2018-11-04T20:28:17.508Z,10.25
2018-11-04T20:30:47.009Z,10.22
2018-11-04T20:33:17.390Z,10.18
2018-11-04T20:35:46.926Z,10.16
2018-11-04T20:38:16.404Z,10.12
2018-11-04T20:40:50.908Z,10.09
2018-11-04T20:43:20.441Z,10.08
2018-11-04T20:45:50.200Z,10.06
2018-11-04T20:48:25.082Z,10.05
2018-11-04T20:51:00.547Z,10.03
2018-11-04T20:53:30.189Z,10.00
2018-11-04T20:56:04.807Z,9.97
2018-11-04T20:58:38.690Z,9.93
2018-11-04T21:01:09.689Z,9.90
2018-11-04T21:03:39.308Z,9.85
2018-11-04T21:06:09.383Z,9.79
2018-11-04T21:08:39.310Z,9.75
2018-11-04T21:11:09.154Z,9.70
2018-11-04T21:13:40.559Z,9.70
2018-11-04T21:16:11.923Z,9.67
2018-11-04T21:18:42.388Z,9.65
2018-11-04T21:21:11.928Z,9.62
2018-11-04T21:23:42.361Z,9.58
2018-11-04T21:26:13.320Z,9.56
2018-11-04T21:28:43.821Z,9.54
2018-11-04T21:31:13.364Z,9.55
2018-11-04T21:33:43.148Z,9.54
2018-11-04T21:36:12.870Z,9.50
2018-11-04T21:38:42.378Z,9.49
2018-11-04T21:41:12.064Z,9.48
2018-11-04T21:43:41.972Z,9.47
2018-11-04T21:46:11.172Z,9.44
2018-11-04T21:48:40.911Z,9.46
2018-11-04T21:51:10.384Z,9.47
2018-11-04T21:53:40.271Z,9.45
2018-11-04T21:56:10.035Z,9.44
2018-11-04T21:58:39.564Z,9.42
2018-11-04T22:01:09.461Z,9.38
2018-11-04T22:03:39.385Z,9.38
2018-11-04T22:06:08.905Z,9.35
2018-11-04T22:08:38.699Z,9.34
2018-11-04T22:11:08.165Z,9.33
2018-11-04T22:13:37.695Z,9.30
2018-11-04T22:16:07.269Z,9.27
2018-11-04T22:18:36.734Z,9.22
2018-11-04T22:21:06.236Z,9.20
2018-11-04T22:23:35.683Z,9.18
2018-11-04T22:26:05.511Z,9.14
2018-11-04T22:28:35.157Z,9.12
2018-11-04T22:31:04.807Z,9.13
2018-11-04T22:33:35.383Z,9.12
2018-11-04T22:36:04.805Z,9.10
2018-11-04T22:38:35.116Z,9.10
2018-11-04T22:41:04.534Z,9.11
2018-11-04T22:43:34.114Z,9.12
2018-11-04T22:46:03.541Z,9.12
2018-11-04T22:48:33.320Z,9.12
2018-11-04T22:51:03.623Z,9.12
2018-11-04T22:53:33.685Z,9.15
2018-11-04T22:56:06.594Z,9.15
2018-11-04T22:58:36.896Z,9.14
2018-11-04T23:01:07.300Z,9.14
2018-11-04T23:03:37.283Z,9.12
2018-11-04T23:06:07.926Z,9.10
2018-11-04T23:08:37.329Z,9.07
2018-11-04T23:11:07.767Z,9.08
2018-11-04T23:13:38.067Z,9.08
2018-11-04T23:16:07.676Z,9.07
2018-11-04T23:18:37.204Z,9.09
2018-11-04T23:21:07.063Z,9.10
2018-11-04T23:23:36.697Z,9.09
2018-11-04T23:26:07.286Z,9.06
2018-11-04T23:28:36.770Z,9.04
2018-11-04T23:31:08.276Z,9.01
2018-11-04T23:33:37.690Z,9.00
2018-11-04T23:36:07.411Z,8.99
2018-11-04T23:38:37.676Z,8.95
2018-11-04T23:41:07.463Z,8.90
2018-11-04T23:43:36.813Z,8.87
2018-11-04T23:46:07.679Z,8.86
2018-11-04T23:48:36.987Z,8.86
2018-11-04T23:51:06.759Z,8.84
2018-11-04T23:53:36.148Z,8.82
2018-11-04T23:56:06.465Z,8.79
2018-11-04T23:58:35.780Z,8.79
